sensor_id;sensor_type;location;lat;lon;timestamp;pressure;altitude;pressure_sealevel;temperature;humidity
45731;BME280;31440;48.584;13.460;2023-04-08T00:02:22;96754.63;;;4.95;100.00
45731;BME280;31440;48.584;13.460;2023-04-08T00:05:27;96770.41;;;4.76;100.00
45731;BME280;31440;48.584;13.460;2023-04-08T00:08:32;96760.88;;;4.28;100.00
45731;BME280;31440;48.584;13.460;2023-04-08T00:11:37;96748.81;;;4.31;100.00
45731;BME280;31440;48.584;13.460;2023-04-08T00:14:42;96731.00;;;4.18;100.00
45731;BME280;31440;48.584;13.460;2023-04-08T00:17:47;96744.63;;;4.26;100.00
45731;BME280;31440;48.584;13.460;2023-04-08T00:20:51;96766.00;;;4.30;100.00
45731;BME280;31440;48.584;13.460;2023-04-08T00:23:56;96739.38;;;4.31;100.00
45731;BME280;31440;48.584;13.460;2023-04-08T00:27:00;96765.88;;;4.39;100.00
45731;BME280;31440;48.584;13.460;2023-04-08T00:30:06;96757.25;;;4.42;100.00
45731;BME280;31440;48.584;13.460;2023-04-08T00:33:11;96750.66;;;4.24;100.00
45731;BME280;31440;48.584;13.460;2023-04-08T00:36:15;96747.53;;;4.04;100.00
45731;BME280;31440;48.584;13.460;2023-04-08T00:39:21;96770.13;;;4.42;100.00
45731;BME280;31440;48.584;13.460;2023-04-08T00:42:25;96747.34;;;4.16;100.00
45731;BME280;31440;48.584;13.460;2023-04-08T00:45:30;96773.88;;;4.21;100.00
45731;BME280;31440;48.584;13.460;2023-04-08T00:48:34;96776.69;;;4.04;100.00
45731;BME280;31440;48.584;13.460;2023-04-08T00:51:39;96773.28;;;4.02;100.00
45731;BME280;31440;48.584;13.460;2023-04-08T00:54:44;96745.69;;;4.10;100.00
45731;BME280;31440;48.584;13.460;2023-04-08T00:57:48;96763.34;;;4.36;100.00
45731;BME280;31440;48.584;13.460;2023-04-08T01:00:58;96736.25;;;4.12;100.00
45731;BME280;31440;48.584;13.460;2023-04-08T01:04:12;96769.91;;;4.54;100.00
45731;BME280;31440;48.584;13.460;2023-04-08T01:07:31;96781.03;;;4.57;100.00
45731;BME280;31440;48.584;13.460;2023-04-08T01:10:38;96773.81;;;4.25;100.00
45731;BME280;31440;48.584;13.460;2023-04-08T01:13:45;96773.69;;;4.32;100.00
45731;BME280;31440;48.584;13.460;2023-04-08T01:16:54;96742.75;;;4.35;100.00
45731;BME280;31440;48.584;13.460;2023-04-08T01:20:02;96772.44;;;4.58;100.00
45731;BME280;31440;48.584;13.460;2023-04-08T01:26:39;96737.22;;;4.07;100.00
45731;BME280;31440;48.584;13.460;2023-04-08T01:29:45;96770.31;;;4.28;100.00
45731;BME280;31440;48.584;13.460;2023-04-08T01:32:53;96749.22;;;4.06;100.00
45731;BME280;31440;48.584;13.460;2023-04-08T01:35:59;96755.09;;;4.13;100.00
45731;BME280;31440;48.584;13.460;2023-04-08T01:39:04;96777.31;;;4.20;100.00
45731;BME280;31440;48.584;13.460;2023-04-08T01:42:11;96772.00;;;4.31;100.00
45731;BME280;31440;48.584;13.460;2023-04-08T01:45:17;96768.63;;;4.27;100.00
45731;BME280;31440;48.584;13.460;2023-04-08T01:48:22;96765.41;;;4.13;100.00
45731;BME280;31440;48.584;13.460;2023-04-08T01:51:28;96742.44;;;4.01;100.00
45731;BME280;31440;48.584;13.460;2023-04-08T01:54:35;96746.78;;;3.96;100.00
45731;BME280;31440;48.584;13.460;2023-04-08T01:57:40;96774.47;;;4.37;100.00
45731;BME280;31440;48.584;13.460;2023-04-08T02:00:48;96779.84;;;4.23;100.00
45731;BME280;31440;48.584;13.460;2023-04-08T02:03:55;96751.28;;;3.78;100.00
45731;BME280;31440;48.584;13.460;2023-04-08T02:07:03;96762.56;;;3.70;100.00
45731;BME280;31440;48.584;13.460;2023-04-08T02:10:08;96777.75;;;3.86;100.00
45731;BME280;31440;48.584;13.460;2023-04-08T02:13:12;96752.28;;;3.68;100.00
45731;BME280;31440;48.584;13.460;2023-04-08T02:16:43;96781.09;;;3.95;100.00
45731;BME280;31440;48.584;13.460;2023-04-08T02:19:59;96782.91;;;3.86;100.00
45731;BME280;31440;48.584;13.460;2023-04-08T02:23:09;96776.47;;;4.18;100.00
45731;BME280;31440;48.584;13.460;2023-04-08T02:26:17;96775.94;;;3.96;100.00
45731;BME280;31440;48.584;13.460;2023-04-08T02:29:24;96786.44;;;4.41;100.00
45731;BME280;31440;48.584;13.460;2023-04-08T02:32:32;96780.31;;;4.48;100.00
45731;BME280;31440;48.584;13.460;2023-04-08T02:35:39;96785.38;;;4.54;100.00
45731;BME280;31440;48.584;13.460;2023-04-08T02:38:48;96746.16;;;4.38;100.00
45731;BME280;31440;48.584;13.460;2023-04-08T02:41:53;96774.66;;;4.80;100.00
45731;BME280;31440;48.584;13.460;2023-04-08T02:44:58;96761.44;;;4.47;100.00
45731;BME280;31440;48.584;13.460;2023-04-08T02:48:03;96778.50;;;4.53;100.00
45731;BME280;31440;48.584;13.460;2023-04-08T02:51:09;96772.84;;;4.31;100.00
45731;BME280;31440;48.584;13.460;2023-04-08T02:54:14;96756.22;;;3.95;100.00
45731;BME280;31440;48.584;13.460;2023-04-08T02:57:19;96760.53;;;3.93;100.00
45731;BME280;31440;48.584;13.460;2023-04-08T03:00:23;96776.16;;;3.76;100.00
45731;BME280;31440;48.584;13.460;2023-04-08T03:03:28;96755.84;;;3.58;100.00
45731;BME280;31440;48.584;13.460;2023-04-08T03:06:34;96772.81;;;3.71;100.00
45731;BME280;31440;48.584;13.460;2023-04-08T03:09:39;96739.03;;;3.33;100.00
45731;BME280;31440;48.584;13.460;2023-04-08T03:12:44;96749.72;;;3.68;100.00
45731;BME280;31440;48.584;13.460;2023-04-08T03:15:48;96735.56;;;3.37;100.00
45731;BME280;31440;48.584;13.460;2023-04-08T03:18:53;96736.53;;;3.27;100.00
45731;BME280;31440;48.584;13.460;2023-04-08T03:21:57;96746.09;;;3.14;100.00
45731;BME280;31440;48.584;13.460;2023-04-08T03:25:02;96780.50;;;2.99;100.00
45731;BME280;31440;48.584;13.460;2023-04-08T03:28:07;96762.88;;;3.44;100.00
45731;BME280;31440;48.584;13.460;2023-04-08T03:31:12;96779.94;;;3.51;100.00
45731;BME280;31440;48.584;13.460;2023-04-08T03:34:16;96780.56;;;3.68;100.00
45731;BME280;31440;48.584;13.460;2023-04-08T03:37:21;96786.19;;;3.27;100.00
45731;BME280;31440;48.584;13.460;2023-04-08T03:40:26;96790.53;;;3.20;100.00
45731;BME280;31440;48.584;13.460;2023-04-08T03:43:30;96794.50;;;3.50;100.00
45731;BME280;31440;48.584;13.460;2023-04-08T03:46:36;96791.25;;;4.07;100.00
45731;BME280;31440;48.584;13.460;2023-04-08T03:49:40;96798.03;;;4.11;100.00
45731;BME280;31440;48.584;13.460;2023-04-08T03:52:45;96806.97;;;3.82;100.00
45731;BME280;31440;48.584;13.460;2023-04-08T03:55:50;96790.09;;;4.26;100.00
45731;BME280;31440;48.584;13.460;2023-04-08T03:58:54;96781.38;;;4.35;100.00
45731;BME280;31440;48.584;13.460;2023-04-08T04:01:59;96799.09;;;4.54;100.00
45731;BME280;31440;48.584;13.460;2023-04-08T04:05:04;96781.56;;;4.24;100.00
45731;BME280;31440;48.584;13.460;2023-04-08T04:08:09;96820.28;;;4.15;100.00
45731;BME280;31440;48.584;13.460;2023-04-08T04:11:13;96830.31;;;4.33;100.00
45731;BME280;31440;48.584;13.460;2023-04-08T04:14:18;96838.44;;;4.06;100.00
45731;BME280;31440;48.584;13.460;2023-04-08T04:17:23;96815.28;;;4.04;100.00
45731;BME280;31440;48.584;13.460;2023-04-08T04:20:27;96840.59;;;4.33;100.00
45731;BME280;31440;48.584;13.460;2023-04-08T04:23:33;96846.53;;;4.40;100.00
45731;BME280;31440;48.584;13.460;2023-04-08T04:26:40;96855.13;;;4.39;100.00
45731;BME280;31440;48.584;13.460;2023-04-08T04:29:45;96850.25;;;4.19;100.00
45731;BME280;31440;48.584;13.460;2023-04-08T04:32:49;96873.63;;;4.04;100.00
45731;BME280;31440;48.584;13.460;2023-04-08T04:35:54;96865.19;;;3.88;100.00
45731;BME280;31440;48.584;13.460;2023-04-08T04:38:59;96846.44;;;3.78;100.00
45731;BME280;31440;48.584;13.460;2023-04-08T04:42:04;96837.97;;;3.70;100.00
45731;BME280;31440;48.584;13.460;2023-04-08T04:45:10;96870.25;;;3.97;100.00
45731;BME280;31440;48.584;13.460;2023-04-08T04:48:14;96884.31;;;3.64;100.00
45731;BME280;31440;48.584;13.460;2023-04-08T04:51:19;96883.31;;;3.79;100.00
45731;BME280;31440;48.584;13.460;2023-04-08T04:54:24;96906.66;;;3.57;100.00
45731;BME280;31440;48.584;13.460;2023-04-08T04:57:29;96883.25;;;3.01;100.00
45731;BME280;31440;48.584;13.460;2023-04-08T05:00:33;96906.69;;;3.56;100.00
45731;BME280;31440;48.584;13.460;2023-04-08T05:03:38;96899.78;;;3.63;100.00
45731;BME280;31440;48.584;13.460;2023-04-08T05:06:43;96895.78;;;3.36;100.00
45731;BME280;31440;48.584;13.460;2023-04-08T05:09:48;96913.50;;;3.60;100.00
45731;BME280;31440;48.584;13.460;2023-04-08T05:12:52;96911.25;;;3.30;100.00
45731;BME280;31440;48.584;13.460;2023-04-08T05:15:57;96885.03;;;2.91;100.00
45731;BME280;31440;48.584;13.460;2023-04-08T05:19:01;96912.38;;;2.98;100.00
45731;BME280;31440;48.584;13.460;2023-04-08T05:22:06;96907.97;;;3.14;100.00
45731;BME280;31440;48.584;13.460;2023-04-08T05:25:10;96925.13;;;3.07;100.00
45731;BME280;31440;48.584;13.460;2023-04-08T05:28:15;96912.34;;;3.01;100.00
45731;BME280;31440;48.584;13.460;2023-04-08T05:31:19;96908.81;;;3.14;100.00
45731;BME280;31440;48.584;13.460;2023-04-08T05:34:24;96935.25;;;3.26;100.00
45731;BME280;31440;48.584;13.460;2023-04-08T05:37:29;96940.53;;;3.12;100.00
45731;BME280;31440;48.584;13.460;2023-04-08T05:40:33;96928.41;;;3.26;100.00
45731;BME280;31440;48.584;13.460;2023-04-08T05:43:38;96933.22;;;3.59;100.00
45731;BME280;31440;48.584;13.460;2023-04-08T05:46:43;96944.00;;;3.02;100.00
45731;BME280;31440;48.584;13.460;2023-04-08T05:49:47;96915.75;;;3.03;100.00
45731;BME280;31440;48.584;13.460;2023-04-08T05:52:54;96943.34;;;2.78;100.00
45731;BME280;31440;48.584;13.460;2023-04-08T05:55:59;96954.25;;;3.08;100.00
45731;BME280;31440;48.584;13.460;2023-04-08T05:59:03;96933.81;;;2.96;100.00
45731;BME280;31440;48.584;13.460;2023-04-08T06:02:08;96951.78;;;2.96;100.00
45731;BME280;31440;48.584;13.460;2023-04-08T06:05:13;96936.97;;;3.23;100.00
45731;BME280;31440;48.584;13.460;2023-04-08T06:08:18;96943.25;;;2.92;100.00
45731;BME280;31440;48.584;13.460;2023-04-08T06:11:22;96942.28;;;3.05;100.00
45731;BME280;31440;48.584;13.460;2023-04-08T06:14:27;96927.44;;;3.38;100.00
45731;BME280;31440;48.584;13.460;2023-04-08T06:17:31;96926.63;;;3.33;100.00
45731;BME280;31440;48.584;13.460;2023-04-08T06:20:36;96934.25;;;3.40;100.00
45731;BME280;31440;48.584;13.460;2023-04-08T06:23:41;96937.63;;;3.47;100.00
45731;BME280;31440;48.584;13.460;2023-04-08T06:26:46;96969.16;;;3.69;100.00
45731;BME280;31440;48.584;13.460;2023-04-08T06:29:51;96969.06;;;3.75;100.00
45731;BME280;31440;48.584;13.460;2023-04-08T06:32:56;96976.63;;;3.95;100.00
45731;BME280;31440;48.584;13.460;2023-04-08T06:36:05;96973.25;;;3.91;100.00
45731;BME280;31440;48.584;13.460;2023-04-08T06:39:09;96949.00;;;3.20;100.00
45731;BME280;31440;48.584;13.460;2023-04-08T06:42:14;96970.78;;;3.76;100.00
45731;BME280;31440;48.584;13.460;2023-04-08T06:45:38;96975.56;;;4.12;100.00
45731;BME280;31440;48.584;13.460;2023-04-08T06:48:43;96949.44;;;3.66;100.00
45731;BME280;31440;48.584;13.460;2023-04-08T06:51:47;96958.03;;;3.64;100.00
45731;BME280;31440;48.584;13.460;2023-04-08T06:54:52;96958.53;;;3.07;100.00
45731;BME280;31440;48.584;13.460;2023-04-08T06:57:56;96991.94;;;3.04;100.00
45731;BME280;31440;48.584;13.460;2023-04-08T07:01:01;96989.94;;;3.44;100.00
45731;BME280;31440;48.584;13.460;2023-04-08T07:04:06;96971.44;;;3.01;100.00
45731;BME280;31440;48.584;13.460;2023-04-08T07:07:11;96997.06;;;3.07;100.00
45731;BME280;31440;48.584;13.460;2023-04-08T07:10:16;96991.06;;;3.11;100.00
45731;BME280;31440;48.584;13.460;2023-04-08T07:13:20;96977.59;;;2.73;100.00
45731;BME280;31440;48.584;13.460;2023-04-08T07:16:25;96972.06;;;3.32;100.00
45731;BME280;31440;48.584;13.460;2023-04-08T07:19:29;97002.03;;;3.32;100.00
45731;BME280;31440;48.584;13.460;2023-04-08T07:22:34;96987.72;;;3.00;100.00
45731;BME280;31440;48.584;13.460;2023-04-08T07:25:39;96997.09;;;3.03;100.00
45731;BME280;31440;48.584;13.460;2023-04-08T07:28:44;96979.78;;;3.31;100.00
45731;BME280;31440;48.584;13.460;2023-04-08T07:31:48;96998.63;;;3.27;100.00
45731;BME280;31440;48.584;13.460;2023-04-08T07:34:53;97000.44;;;5.39;100.00
45731;BME280;31440;48.584;13.460;2023-04-08T07:37:57;97013.78;;;3.62;100.00
45731;BME280;31440;48.584;13.460;2023-04-08T07:41:02;96999.78;;;2.86;100.00
45731;BME280;31440;48.584;13.460;2023-04-08T07:44:07;97022.72;;;3.15;100.00
45731;BME280;31440;48.584;13.460;2023-04-08T07:47:11;97020.06;;;3.22;100.00
45731;BME280;31440;48.584;13.460;2023-04-08T07:50:16;97007.19;;;3.27;100.00
45731;BME280;31440;48.584;13.460;2023-04-08T07:53:21;97013.31;;;3.09;100.00
45731;BME280;31440;48.584;13.460;2023-04-08T07:56:27;97021.13;;;2.99;100.00
45731;BME280;31440;48.584;13.460;2023-04-08T07:59:32;97024.34;;;3.23;100.00
45731;BME280;31440;48.584;13.460;2023-04-08T08:02:36;97026.38;;;2.74;100.00
45731;BME280;31440;48.584;13.460;2023-04-08T08:05:41;96992.78;;;3.05;100.00
45731;BME280;31440;48.584;13.460;2023-04-08T08:08:46;97001.63;;;2.61;100.00
45731;BME280;31440;48.584;13.460;2023-04-08T08:11:51;97016.34;;;2.24;100.00
45731;BME280;31440;48.584;13.460;2023-04-08T08:14:55;97002.53;;;2.49;100.00
45731;BME280;31440;48.584;13.460;2023-04-08T08:18:02;97038.28;;;2.87;100.00
45731;BME280;31440;48.584;13.460;2023-04-08T08:21:08;97015.31;;;2.65;100.00
45731;BME280;31440;48.584;13.460;2023-04-08T08:24:13;97020.38;;;2.78;100.00
45731;BME280;31440;48.584;13.460;2023-04-08T08:27:17;97011.81;;;2.78;100.00
45731;BME280;31440;48.584;13.460;2023-04-08T08:30:22;97034.75;;;3.07;100.00
45731;BME280;31440;48.584;13.460;2023-04-08T08:33:26;97043.16;;;3.29;100.00
45731;BME280;31440;48.584;13.460;2023-04-08T08:36:31;97023.06;;;2.54;100.00
45731;BME280;31440;48.584;13.460;2023-04-08T08:39:38;97021.16;;;2.89;100.00
45731;BME280;31440;48.584;13.460;2023-04-08T08:42:50;97042.66;;;2.69;100.00
45731;BME280;31440;48.584;13.460;2023-04-08T08:45:58;97040.72;;;3.13;100.00
45731;BME280;31440;48.584;13.460;2023-04-08T08:49:03;97034.09;;;2.67;100.00
45731;BME280;31440;48.584;13.460;2023-04-08T08:52:07;97037.72;;;2.29;100.00
45731;BME280;31440;48.584;13.460;2023-04-08T08:55:12;97028.25;;;2.40;100.00
45731;BME280;31440;48.584;13.460;2023-04-08T08:58:37;97035.69;;;2.92;100.00
45731;BME280;31440;48.584;13.460;2023-04-08T09:01:42;97026.38;;;2.77;100.00
45731;BME280;31440;48.584;13.460;2023-04-08T09:04:59;97051.28;;;2.56;100.00
45731;BME280;31440;48.584;13.460;2023-04-08T09:08:04;97055.63;;;2.37;100.00
45731;BME280;31440;48.584;13.460;2023-04-08T09:11:26;97061.63;;;2.42;100.00
45731;BME280;31440;48.584;13.460;2023-04-08T09:14:31;97043.50;;;2.77;100.00
45731;BME280;31440;48.584;13.460;2023-04-08T09:17:37;97068.38;;;2.60;100.00
45731;BME280;31440;48.584;13.460;2023-04-08T09:20:52;97066.41;;;3.16;100.00
45731;BME280;31440;48.584;13.460;2023-04-08T09:23:57;97064.59;;;3.28;100.00
45731;BME280;31440;48.584;13.460;2023-04-08T09:27:03;97078.38;;;3.17;100.00
45731;BME280;31440;48.584;13.460;2023-04-08T09:30:14;97071.22;;;3.59;100.00
45731;BME280;31440;48.584;13.460;2023-04-08T09:33:19;97045.72;;;3.35;100.00
45731;BME280;31440;48.584;13.460;2023-04-08T09:36:24;97078.00;;;3.71;100.00
45731;BME280;31440;48.584;13.460;2023-04-08T09:39:32;97071.88;;;3.85;100.00
45731;BME280;31440;48.584;13.460;2023-04-08T09:42:39;97091.75;;;3.64;100.00
45731;BME280;31440;48.584;13.460;2023-04-08T09:45:45;97076.03;;;4.00;100.00
45731;BME280;31440;48.584;13.460;2023-04-08T09:49:26;97082.91;;;4.01;100.00
45731;BME280;31440;48.584;13.460;2023-04-08T09:52:33;97088.81;;;4.09;100.00
45731;BME280;31440;48.584;13.460;2023-04-08T09:55:47;97057.19;;;3.98;100.00
45731;BME280;31440;48.584;13.460;2023-04-08T09:58:58;97095.72;;;4.06;100.00
45731;BME280;31440;48.584;13.460;2023-04-08T10:02:08;97096.19;;;3.43;100.00
45731;BME280;31440;48.584;13.460;2023-04-08T10:05:15;97072.75;;;3.83;100.00
45731;BME280;31440;48.584;13.460;2023-04-08T10:08:22;97056.44;;;3.90;100.00
45731;BME280;31440;48.584;13.460;2023-04-08T10:11:27;97083.16;;;3.69;100.00
45731;BME280;31440;48.584;13.460;2023-04-08T10:14:33;97066.09;;;3.56;100.00
45731;BME280;31440;48.584;13.460;2023-04-08T10:17:38;97073.66;;;3.76;100.00
45731;BME280;31440;48.584;13.460;2023-04-08T10:20:44;97060.44;;;4.18;100.00
45731;BME280;31440;48.584;13.460;2023-04-08T10:23:55;97087.47;;;4.57;100.00
45731;BME280;31440;48.584;13.460;2023-04-08T10:27:02;97078.47;;;4.14;100.00
45731;BME280;31440;48.584;13.460;2023-04-08T10:36:33;97071.78;;;3.98;100.00
45731;BME280;31440;48.584;13.460;2023-04-08T10:39:38;97079.72;;;4.60;100.00
45731;BME280;31440;48.584;13.460;2023-04-08T10:42:43;97086.06;;;4.27;100.00
45731;BME280;31440;48.584;13.460;2023-04-08T10:45:47;97057.78;;;4.98;100.00
45731;BME280;31440;48.584;13.460;2023-04-08T10:49:00;97078.03;;;5.22;100.00
45731;BME280;31440;48.584;13.460;2023-04-08T10:52:06;97077.38;;;5.68;100.00
45731;BME280;31440;48.584;13.460;2023-04-08T10:55:11;97065.47;;;5.58;100.00
45731;BME280;31440;48.584;13.460;2023-04-08T10:58:16;97059.97;;;5.25;100.00
45731;BME280;31440;48.584;13.460;2023-04-08T11:01:21;97094.34;;;5.24;100.00
45731;BME280;31440;48.584;13.460;2023-04-08T11:04:26;97085.22;;;5.60;100.00
45731;BME280;31440;48.584;13.460;2023-04-08T11:07:31;97088.53;;;6.21;100.00
45731;BME280;31440;48.584;13.460;2023-04-08T11:10:37;97087.03;;;6.57;100.00
45731;BME280;31440;48.584;13.460;2023-04-08T11:13:44;97098.16;;;6.10;100.00
45731;BME280;31440;48.584;13.460;2023-04-08T11:16:57;97068.16;;;6.06;100.00
45731;BME280;31440;48.584;13.460;2023-04-08T11:20:04;97091.38;;;6.96;100.00
45731;BME280;31440;48.584;13.460;2023-04-08T11:23:13;97099.63;;;6.24;100.00
45731;BME280;31440;48.584;13.460;2023-04-08T11:26:18;97079.59;;;6.40;100.00
45731;BME280;31440;48.584;13.460;2023-04-08T11:29:24;97101.06;;;5.91;100.00
45731;BME280;31440;48.584;13.460;2023-04-08T11:32:28;97090.63;;;5.99;100.00
45731;BME280;31440;48.584;13.460;2023-04-08T11:35:33;97103.22;;;6.16;100.00
45731;BME280;31440;48.584;13.460;2023-04-08T11:38:39;97077.50;;;5.59;100.00
45731;BME280;31440;48.584;13.460;2023-04-08T11:41:47;97067.94;;;5.67;100.00
45731;BME280;31440;48.584;13.460;2023-04-08T11:44:51;97103.63;;;5.93;100.00
45731;BME280;31440;48.584;13.460;2023-04-08T11:47:56;97102.31;;;5.68;100.00
45731;BME280;31440;48.584;13.460;2023-04-08T11:51:02;97104.03;;;5.69;100.00
45731;BME280;31440;48.584;13.460;2023-04-08T11:54:29;97101.22;;;5.82;100.00
45731;BME280;31440;48.584;13.460;2023-04-08T11:57:34;97068.72;;;5.15;100.00
45731;BME280;31440;48.584;13.460;2023-04-08T12:00:39;97097.25;;;6.12;100.00
45731;BME280;31440;48.584;13.460;2023-04-08T12:04:02;97101.94;;;5.90;100.00
45731;BME280;31440;48.584;13.460;2023-04-08T12:07:08;97084.03;;;5.81;100.00
45731;BME280;31440;48.584;13.460;2023-04-08T12:10:14;97103.16;;;5.70;100.00
45731;BME280;31440;48.584;13.460;2023-04-08T12:13:18;97075.03;;;4.91;100.00
45731;BME280;31440;48.584;13.460;2023-04-08T12:16:23;97092.94;;;5.60;100.00
45731;BME280;31440;48.584;13.460;2023-04-08T12:19:28;97099.81;;;5.63;100.00
45731;BME280;31440;48.584;13.460;2023-04-08T12:22:34;97105.38;;;5.91;100.00
45731;BME280;31440;48.584;13.460;2023-04-08T12:25:39;97096.34;;;5.64;100.00
45731;BME280;31440;48.584;13.460;2023-04-08T12:28:44;97104.91;;;5.68;100.00
45731;BME280;31440;48.584;13.460;2023-04-08T12:31:49;97115.28;;;5.63;100.00
45731;BME280;31440;48.584;13.460;2023-04-08T12:34:55;97123.44;;;5.89;100.00
45731;BME280;31440;48.584;13.460;2023-04-08T12:37:59;97111.41;;;5.33;100.00
45731;BME280;31440;48.584;13.460;2023-04-08T12:41:04;97108.00;;;5.32;100.00
45731;BME280;31440;48.584;13.460;2023-04-08T12:44:09;97121.84;;;5.84;100.00
45731;BME280;31440;48.584;13.460;2023-04-08T12:47:14;97098.47;;;5.36;100.00
45731;BME280;31440;48.584;13.460;2023-04-08T12:50:19;97123.59;;;5.80;100.00
45731;BME280;31440;48.584;13.460;2023-04-08T12:53:24;97122.00;;;5.72;100.00
45731;BME280;31440;48.584;13.460;2023-04-08T12:56:29;97104.69;;;6.32;100.00
45731;BME280;31440;48.584;13.460;2023-04-08T12:59:34;97104.69;;;6.32;100.00
45731;BME280;31440;48.584;13.460;2023-04-08T13:02:39;97095.88;;;6.42;100.00
45731;BME280;31440;48.584;13.460;2023-04-08T13:05:45;97117.75;;;6.23;100.00
45731;BME280;31440;48.584;13.460;2023-04-08T13:08:50;97112.72;;;6.14;100.00
45731;BME280;31440;48.584;13.460;2023-04-08T13:11:55;97128.19;;;6.15;100.00
45731;BME280;31440;48.584;13.460;2023-04-08T13:15:00;97118.84;;;6.08;100.00
45731;BME280;31440;48.584;13.460;2023-04-08T13:18:05;97125.38;;;6.29;100.00
45731;BME280;31440;48.584;13.460;2023-04-08T13:21:09;97127.56;;;6.53;100.00
45731;BME280;31440;48.584;13.460;2023-04-08T13:24:14;97133.34;;;6.17;100.00
45731;BME280;31440;48.584;13.460;2023-04-08T13:27:19;97137.75;;;6.09;100.00
45731;BME280;31440;48.584;13.460;2023-04-08T13:30:23;97139.78;;;5.90;100.00
45731;BME280;31440;48.584;13.460;2023-04-08T13:33:28;97113.81;;;6.00;100.00
45731;BME280;31440;48.584;13.460;2023-04-08T13:36:33;97136.13;;;6.05;100.00
45731;BME280;31440;48.584;13.460;2023-04-08T13:39:39;97126.44;;;5.65;100.00
45731;BME280;31440;48.584;13.460;2023-04-08T13:42:44;97111.94;;;5.55;100.00
45731;BME280;31440;48.584;13.460;2023-04-08T13:45:49;97120.25;;;5.75;100.00
45731;BME280;31440;48.584;13.460;2023-04-08T13:48:53;97143.19;;;5.93;100.00
45731;BME280;31440;48.584;13.460;2023-04-08T13:51:58;97115.03;;;5.78;100.00
45731;BME280;31440;48.584;13.460;2023-04-08T13:55:03;97144.69;;;6.07;100.00
45731;BME280;31440;48.584;13.460;2023-04-08T13:58:08;97133.44;;;6.11;100.00
45731;BME280;31440;48.584;13.460;2023-04-08T14:01:26;97143.56;;;6.23;100.00
45731;BME280;31440;48.584;13.460;2023-04-08T14:04:31;97141.91;;;6.20;100.00
45731;BME280;31440;48.584;13.460;2023-04-08T14:07:36;97139.13;;;6.32;100.00
45731;BME280;31440;48.584;13.460;2023-04-08T14:10:40;97120.47;;;6.14;100.00
45731;BME280;31440;48.584;13.460;2023-04-08T14:13:45;97151.63;;;6.55;100.00
45731;BME280;31440;48.584;13.460;2023-04-08T14:16:50;97124.19;;;6.48;100.00
45731;BME280;31440;48.584;13.460;2023-04-08T14:19:55;97144.72;;;6.57;100.00
45731;BME280;31440;48.584;13.460;2023-04-08T14:23:00;97147.53;;;6.44;100.00
45731;BME280;31440;48.584;13.460;2023-04-08T14:26:04;97148.81;;;6.67;100.00
45731;BME280;31440;48.584;13.460;2023-04-08T14:29:10;97145.91;;;6.40;100.00
45731;BME280;31440;48.584;13.460;2023-04-08T14:32:15;97157.38;;;6.22;100.00
45731;BME280;31440;48.584;13.460;2023-04-08T14:35:20;97170.09;;;6.34;100.00
45731;BME280;31440;48.584;13.460;2023-04-08T14:38:25;97151.16;;;6.30;100.00
45731;BME280;31440;48.584;13.460;2023-04-08T14:41:30;97169.88;;;6.46;100.00
45731;BME280;31440;48.584;13.460;2023-04-08T14:44:34;97159.59;;;6.43;100.00
45731;BME280;31440;48.584;13.460;2023-04-08T14:47:39;97148.81;;;6.18;100.00
45731;BME280;31440;48.584;13.460;2023-04-08T14:50:44;97167.63;;;6.25;100.00
45731;BME280;31440;48.584;13.460;2023-04-08T14:53:49;97148.97;;;6.08;100.00
45731;BME280;31440;48.584;13.460;2023-04-08T14:56:54;97175.41;;;6.23;100.00
45731;BME280;31440;48.584;13.460;2023-04-08T14:59:59;97155.97;;;6.01;100.00
45731;BME280;31440;48.584;13.460;2023-04-08T15:03:04;97181.53;;;6.68;100.00
45731;BME280;31440;48.584;13.460;2023-04-08T15:06:09;97164.69;;;5.92;100.00
45731;BME280;31440;48.584;13.460;2023-04-08T15:09:14;97193.25;;;5.82;100.00
45731;BME280;31440;48.584;13.460;2023-04-08T15:12:18;97169.78;;;5.97;100.00
45731;BME280;31440;48.584;13.460;2023-04-08T15:15:23;97191.81;;;6.19;100.00
45731;BME280;31440;48.584;13.460;2023-04-08T15:18:28;97192.22;;;5.92;100.00
45731;BME280;31440;48.584;13.460;2023-04-08T15:21:32;97166.97;;;5.55;100.00
45731;BME280;31440;48.584;13.460;2023-04-08T15:24:37;97199.97;;;5.93;100.00
45731;BME280;31440;48.584;13.460;2023-04-08T15:27:41;97173.28;;;5.94;100.00
45731;BME280;31440;48.584;13.460;2023-04-08T15:30:48;97177.53;;;5.98;100.00
45731;BME280;31440;48.584;13.460;2023-04-08T15:33:52;97182.75;;;6.48;100.00
45731;BME280;31440;48.584;13.460;2023-04-08T15:36:58;97185.97;;;6.07;100.00
45731;BME280;31440;48.584;13.460;2023-04-08T15:40:03;97192.72;;;6.17;100.00
45731;BME280;31440;48.584;13.460;2023-04-08T15:43:08;97212.28;;;6.33;100.00
45731;BME280;31440;48.584;13.460;2023-04-08T15:46:17;97203.41;;;6.97;100.00
45731;BME280;31440;48.584;13.460;2023-04-08T15:49:23;97195.63;;;6.97;100.00
45731;BME280;31440;48.584;13.460;2023-04-08T15:52:27;97181.88;;;6.49;100.00
45731;BME280;31440;48.584;13.460;2023-04-08T15:55:39;97208.03;;;6.78;100.00
45731;BME280;31440;48.584;13.460;2023-04-08T15:58:44;97210.25;;;6.99;100.00
45731;BME280;31440;48.584;13.460;2023-04-08T16:01:49;97210.50;;;6.86;100.00
45731;BME280;31440;48.584;13.460;2023-04-08T16:04:54;97216.09;;;7.09;100.00
45731;BME280;31440;48.584;13.460;2023-04-08T16:07:58;97210.88;;;6.64;100.00
45731;BME280;31440;48.584;13.460;2023-04-08T16:11:04;97187.38;;;6.27;100.00
45731;BME280;31440;48.584;13.460;2023-04-08T16:14:09;97231.44;;;6.17;100.00
45731;BME280;31440;48.584;13.460;2023-04-08T16:17:15;97215.78;;;6.27;100.00
45731;BME280;31440;48.584;13.460;2023-04-08T16:20:20;97209.34;;;5.99;100.00
45731;BME280;31440;48.584;13.460;2023-04-08T16:23:25;97223.81;;;6.08;100.00